Time;durP1;ratioP1;P1;durP2;ratioP2;P2;SDS_P1;SDS_P2;PMS_P1;PMS_P2;Temp;Humidity;BMP_temperature;BMP_pressure;BME280_temperature;BME280_humidity;BME280_pressure;Samples;Min_cycle;Max_cycle;Signal;HPM_P1;HPM_P2
2021/04/19 00:00:48;;;;;;;5.65;2.30;;;10.70;57.80;;;;;;2329752;53;20970;-67
2021/04/19 00:03:14;;;;;;;4.45;2.22;;;10.70;57.80;;;;;;2340293;53;21403;-67
2021/04/19 00:05:40;;;;;;;5.12;2.40;;;10.70;57.80;;;;;;2343910;54;21417;-69
2021/04/19 00:08:07;;;;;;;6.75;2.80;;;10.70;57.80;;;;;;2343831;53;20998;-66
2021/04/19 00:10:33;;;;;;;4.95;2.70;;;10.70;57.80;;;;;;2355245;53;20939;-67
2021/04/19 00:12:59;;;;;;;6.40;2.67;;;10.70;57.80;;;;;;2343926;53;20926;-69
2021/04/19 00:15:26;;;;;;;4.72;2.40;;;10.70;57.80;;;;;;2488765;53;20931;-68
2021/04/19 00:17:53;;;;;;;4.70;2.85;;;10.70;57.80;;;;;;2344260;53;20966;-65
2021/04/19 00:20:19;;;;;;;4.93;2.80;;;10.70;57.80;;;;;;2344079;53;21436;-68
2021/04/19 00:22:45;;;;;;;5.25;2.83;;;10.80;57.90;;;;;;2351895;53;21044;-69
2021/04/19 00:25:12;;;;;;;5.10;2.22;;;10.80;57.90;;;;;;2324847;53;20971;-64
2021/04/19 00:27:38;;;;;;;7.32;2.37;;;10.80;57.90;;;;;;2457955;53;21320;-66
2021/04/19 00:30:07;;;;;;;3.50;1.95;;;10.80;58.00;;;;;;2344080;53;20982;-69
2021/04/19 00:32:33;;;;;;;4.93;2.28;;;10.80;58.00;;;;;;2347036;53;21397;-66
2021/04/19 00:34:59;;;;;;;5.35;2.25;;;10.80;58.00;;;;;;2343847;53;20911;-69
2021/04/19 00:37:26;;;;;;;4.12;2.35;;;10.80;58.00;;;;;;2590677;53;20975;-65
2021/04/19 00:39:52;;;;;;;5.05;2.80;;;10.90;58.00;;;;;;2344226;53;20904;-68
2021/04/19 00:42:22;;;;;;;5.57;2.70;;;10.90;58.00;;;;;;2344482;53;21052;-66
2021/04/19 00:44:49;;;;;;;5.68;2.75;;;10.90;58.00;;;;;;2356330;53;21524;-69
2021/04/19 00:47:15;;;;;;;4.72;2.90;;;10.90;58.00;;;;;;2347717;53;21511;-70
2021/04/19 00:49:42;;;;;;;5.93;3.00;;;10.90;58.00;;;;;;2330005;53;20990;-67
2021/04/19 00:52:08;;;;;;;6.45;3.05;;;10.90;58.00;;;;;;2578553;53;20936;-68
2021/04/19 00:54:35;;;;;;;6.05;3.10;;;11.00;58.10;;;;;;2348106;53;20951;-68
2021/04/19 00:57:02;;;;;;;4.80;2.50;;;11.00;58.10;;;;;;2345347;53;21019;-66
2021/04/19 00:59:28;;;;;;;4.28;2.12;;;11.00;58.10;;;;;;2343080;53;20987;-66
2021/04/19 01:01:54;;;;;;;5.03;2.53;;;11.00;58.10;;;;;;2348090;54;20944;-69
2021/04/19 01:04:21;;;;;;;4.25;2.35;;;11.00;58.00;;;;;;2341372;53;24936;-68
2021/04/19 01:06:47;;;;;;;5.03;2.47;;;11.00;58.00;;;;;;2347850;53;20987;-66
2021/04/19 01:09:14;;;;;;;6.57;3.12;;;11.10;58.00;;;;;;2334195;53;20966;-68
2021/04/19 01:11:40;;;;;;;5.50;2.87;;;11.10;58.00;;;;;;2338404;53;21805;-65
2021/04/19 01:14:06;;;;;;;5.60;2.90;;;11.10;58.60;;;;;;2563533;53;20979;-66
2021/04/19 01:16:33;;;;;;;6.60;3.10;;;11.10;57.90;;;;;;2344307;54;21010;-65
2021/04/19 01:18:59;;;;;;;8.60;3.55;;;11.10;57.90;;;;;;2344753;53;21388;-65
2021/04/19 01:21:25;;;;;;;5.62;3.00;;;11.10;57.90;;;;;;2344162;54;20964;-66
2021/04/19 01:23:52;;;;;;;8.50;3.08;;;11.10;57.90;;;;;;2352523;53;21128;-69
2021/04/19 01:26:18;;;;;;;4.87;2.70;;;11.10;57.90;;;;;;2347866;53;20948;-67
2021/04/19 01:28:49;;;;;;;6.40;2.60;;;11.00;57.80;;;;;;2344271;53;20994;-65
2021/04/19 01:31:16;;;;;;;5.28;2.65;;;11.10;58.00;;;;;;2574670;53;20967;-65
2021/04/19 01:33:43;;;;;;;5.95;3.10;;;11.00;57.90;;;;;;2341218;53;21407;-68
2021/04/19 01:36:09;;;;;;;5.80;3.03;;;11.00;58.00;;;;;;2348361;53;21020;-67
2021/04/19 01:38:36;;;;;;;5.97;2.90;;;11.00;58.00;;;;;;2343755;53;20931;-68
2021/04/19 01:41:03;;;;;;;5.40;2.55;;;11.10;58.00;;;;;;2344242;53;20983;-66
2021/04/19 01:43:29;;;;;;;5.65;2.80;;;11.00;57.80;;;;;;2344343;54;20986;-69
2021/04/19 01:45:55;;;;;;;5.82;3.00;;;11.00;57.80;;;;;;2343945;54;20990;-69
2021/04/19 01:48:22;;;;;;;6.95;3.53;;;11.00;57.70;;;;;;2347369;54;20928;-69
2021/04/19 01:50:49;;;;;;;6.18;2.92;;;11.00;57.70;;;;;;2349729;53;21613;-67
2021/04/19 01:53:16;;;;;;;5.72;2.87;;;11.00;57.70;;;;;;2581641;53;20949;-65
2021/04/19 01:55:42;;;;;;;9.55;4.05;;;10.90;57.50;;;;;;2338786;53;21762;-67
2021/04/19 01:58:12;;;;;;;7.95;3.85;;;10.90;57.50;;;;;;2343009;53;20951;-68
2021/04/19 02:00:41;;;;;;;9.00;4.32;;;10.90;57.50;;;;;;2438851;52;20957;-68
2021/04/19 02:04:08;;;;;;;6.93;3.62;;;10.80;57.40;;;;;;2332232;53;21074;-67
2021/04/19 02:08:10;;;;;;;9.05;3.92;;;10.80;57.30;;;;;;2347400;53;21218;-68
2021/04/19 02:13:31;;;;;;;6.87;3.47;;;10.70;57.10;;;;;;2345521;53;21050;-67
2021/04/19 02:16:06;;;;;;;6.82;3.50;;;10.60;57.00;;;;;;2348005;53;20932;-70
2021/04/19 02:18:56;;;;;;;8.13;4.05;;;10.60;57.50;;;;;;2327366;53;20988;-67
2021/04/19 02:21:48;;;;;;;7.78;4.10;;;10.60;57.50;;;;;;2336406;53;21698;-65
2021/04/19 02:24:21;;;;;;;8.88;4.43;;;10.50;57.60;;;;;;2347918;53;20960;-66
2021/04/19 02:26:54;;;;;;;9.60;4.22;;;10.50;57.90;;;;;;2329158;53;20935;-67
2021/04/19 02:29:31;;;;;;;7.22;3.92;;;10.50;58.00;;;;;;2343439;53;20995;-66
2021/04/19 02:32:03;;;;;;;8.73;4.68;;;10.50;58.00;;;;;;2343577;53;20947;-66
2021/04/19 02:34:31;;;;;;;8.85;3.97;;;10.50;58.10;;;;;;2347332;53;20999;-68
2021/04/19 02:36:58;;;;;;;8.07;4.50;;;10.50;58.10;;;;;;2347902;53;21012;-67
2021/04/19 02:39:25;;;;;;;9.95;4.80;;;10.50;58.20;;;;;;2333901;53;21880;-68
2021/04/19 02:41:52;;;;;;;10.30;4.47;;;10.50;58.20;;;;;;2334946;53;20955;-67
2021/04/19 02:44:20;;;;;;;9.40;4.47;;;10.60;58.30;;;;;;2344240;53;21019;-67
2021/04/19 02:46:52;;;;;;;7.05;4.07;;;10.60;58.30;;;;;;2590271;53;20963;-66
2021/04/19 02:49:26;;;;;;;9.05;4.22;;;10.60;58.20;;;;;;2347786;54;21042;-66
2021/04/19 02:51:52;;;;;;;7.78;3.78;;;10.60;58.10;;;;;;2339725;53;21737;-65
2021/04/19 02:54:21;;;;;;;9.98;4.05;;;10.60;58.70;;;;;;2341039;53;21754;-66
2021/04/19 02:56:47;;;;;;;6.62;3.62;;;10.50;58.00;;;;;;2590497;53;20935;-68
2021/04/19 02:59:14;;;;;;;7.28;4.07;;;10.50;58.60;;;;;;2590894;53;21432;-65
2021/04/19 03:01:42;;;;;;;6.97;3.55;;;10.50;57.90;;;;;;2343882;53;20991;-68
2021/04/19 03:04:11;;;;;;;9.20;3.78;;;10.50;57.90;;;;;;2558357;54;21424;-67
2021/04/19 03:06:39;;;;;;;9.18;4.30;;;10.50;57.80;;;;;;2333911;53;20927;-66
2021/04/19 03:09:05;;;;;;;6.45;3.60;;;10.40;57.70;;;;;;2344058;53;21392;-66
2021/04/19 03:11:41;;;;;;;7.97;3.78;;;10.40;57.70;;;;;;2346720;53;21000;-65
2021/04/19 03:14:07;;;;;;;6.32;3.45;;;10.30;57.50;;;;;;2343950;54;20994;-67
2021/04/19 03:16:34;;;;;;;8.65;5.10;;;10.30;57.70;;;;;;2343983;53;20914;-64
2021/04/19 03:19:00;;;;;;;7.37;3.83;;;10.30;57.70;;;;;;2347850;53;21504;-68
2021/04/19 03:21:27;;;;;;;7.10;4.07;;;10.20;57.70;;;;;;2343647;53;20991;-68
2021/04/19 03:23:54;;;;;;;7.20;3.95;;;10.20;57.70;;;;;;2348055;53;20919;-65
2021/04/19 03:26:24;;;;;;;8.93;3.92;;;10.10;57.80;;;;;;2343207;53;20951;-66
2021/04/19 03:28:51;;;;;;;9.45;3.90;;;10.10;57.80;;;;;;2350020;53;20980;-67
2021/04/19 03:31:20;;;;;;;7.47;3.90;;;10.10;58.00;;;;;;2333658;53;20922;-67
2021/04/19 03:33:47;;;;;;;9.38;3.80;;;10.00;58.00;;;;;;2343938;54;20915;-66
2021/04/19 03:36:17;;;;;;;8.52;4.20;;;10.00;58.10;;;;;;2343991;54;20976;-67
2021/04/19 03:38:44;;;;;;;7.12;3.80;;;10.00;58.30;;;;;;2348257;53;21031;-68
2021/04/19 03:41:10;;;;;;;8.43;4.10;;;10.00;58.40;;;;;;2318896;54;20966;-67
2021/04/19 03:43:38;;;;;;;7.65;3.62;;;10.00;58.50;;;;;;2337413;53;20919;-68
2021/04/19 03:46:05;;;;;;;7.45;3.72;;;10.00;58.50;;;;;;2590063;53;20943;-64
2021/04/19 03:48:32;;;;;;;8.60;5.22;;;10.00;58.50;;;;;;2348264;53;21014;-67
2021/04/19 03:51:05;;;;;;;8.13;4.70;;;10.00;58.50;;;;;;2343014;53;20995;-68
2021/04/19 03:53:32;;;;;;;7.97;4.32;;;10.00;58.40;;;;;;2589323;53;20999;-66
2021/04/19 03:55:59;;;;;;;7.70;4.30;;;10.00;58.40;;;;;;2344274;54;20931;-68
2021/04/19 03:58:28;;;;;;;7.40;4.00;;;10.00;58.30;;;;;;2471897;53;20947;-66
2021/04/19 04:01:04;;;;;;;6.72;3.58;;;10.00;58.30;;;;;;2348495;53;20965;-68
2021/04/19 04:03:30;;;;;;;7.32;4.22;;;10.00;58.10;;;;;;2336775;53;21785;-66
2021/04/19 04:06:00;;;;;;;8.02;4.53;;;9.90;59.00;;;;;;2343919;54;20943;-67
2021/04/19 04:08:26;;;;;;;10.43;4.78;;;9.90;59.00;;;;;;2590378;53;20914;-68
2021/04/19 04:10:54;;;;;;;6.72;4.20;;;9.90;59.10;;;;;;2478021;53;21036;-67
2021/04/19 04:13:22;;;;;;;8.40;4.35;;;9.90;59.20;;;;;;2343709;54;20923;-69
2021/04/19 04:15:52;;;;;;;7.43;4.20;;;9.80;59.10;;;;;;2344369;54;20919;-69
2021/04/19 04:18:19;;;;;;;8.45;3.90;;;9.80;59.20;;;;;;2343881;53;20975;-67
2021/04/19 04:20:45;;;;;;;8.45;4.55;;;9.80;59.20;;;;;;2343333;53;21730;-69
2021/04/19 04:23:11;;;;;;;7.65;4.15;;;9.80;59.20;;;;;;2343898;54;21016;-66
2021/04/19 04:25:38;;;;;;;7.53;4.28;;;9.70;59.10;;;;;;2347930;53;21242;-68
2021/04/19 04:28:06;;;;;;;7.30;3.92;;;9.70;59.20;;;;;;2589736;53;21448;-69
2021/04/19 04:30:35;;;;;;;8.10;3.87;;;9.60;59.20;;;;;;2343549;53;20931;-66
2021/04/19 04:33:03;;;;;;;6.32;3.28;;;9.60;59.20;;;;;;2421782;53;20936;-66
2021/04/19 04:35:29;;;;;;;7.25;4.22;;;9.60;59.20;;;;;;2339722;53;20935;-69
2021/04/19 04:37:57;;;;;;;8.35;4.47;;;9.60;59.20;;;;;;2344086;53;20963;-67
2021/04/19 04:40:25;;;;;;;7.60;4.28;;;9.50;59.10;;;;;;2343965;54;20962;-66
2021/04/19 04:42:53;;;;;;;7.50;3.83;;;9.50;59.00;;;;;;2351353;53;21016;-67
2021/04/19 04:45:20;;;;;;;7.03;3.70;;;9.50;59.00;;;;;;2360762;54;20950;-67
2021/04/19 04:50:30;;;;;;;9.15;4.65;;;9.50;59.00;;;;;;2353820;53;21349;-65
2021/04/19 04:53:58;;;;;;;7.43;3.37;;;9.40;59.00;;;;;;2345234;54;21581;-65
2021/04/19 04:56:26;;;;;;;10.40;4.05;;;9.40;59.10;;;;;;2352225;53;20992;-65
2021/04/19 04:58:53;;;;;;;8.23;4.53;;;9.30;59.40;;;;;;2351056;53;20943;-67
2021/04/19 05:01:20;;;;;;;9.45;4.87;;;9.30;59.60;;;;;;2344712;53;20907;-66
2021/04/19 05:03:47;;;;;;;9.63;4.53;;;9.30;59.90;;;;;;2348405;53;20947;-66
2021/04/19 05:06:13;;;;;;;9.40;5.12;;;9.30;60.00;;;;;;2340677;53;20939;-67
2021/04/19 05:08:40;;;;;;;9.55;4.87;;;9.30;60.10;;;;;;2366056;53;21383;-69
2021/04/19 05:11:07;;;;;;;9.48;4.53;;;9.40;60.40;;;;;;2347030;53;20964;-66
2021/04/19 05:13:33;;;;;;;11.63;5.28;;;9.40;60.50;;;;;;2347902;53;20956;-65
2021/04/19 05:16:01;;;;;;;9.63;4.93;;;9.40;60.50;;;;;;2343849;53;20994;-70
2021/04/19 05:18:27;;;;;;;8.90;4.70;;;9.40;60.60;;;;;;2344099;53;20967;-66
2021/04/19 05:20:56;;;;;;;7.40;4.25;;;9.50;60.70;;;;;;2343723;54;20975;-66
2021/04/19 05:23:22;;;;;;;8.82;4.65;;;9.50;60.70;;;;;;2344097;54;20959;-68
2021/04/19 05:25:49;;;;;;;8.70;4.43;;;9.50;60.70;;;;;;2348160;53;20924;-66
2021/04/19 05:28:17;;;;;;;9.68;4.70;;;9.60;60.80;;;;;;2347786;53;21698;-69
2021/04/19 05:30:44;;;;;;;8.30;4.95;;;9.60;60.90;;;;;;2343499;53;20939;-67
2021/04/19 05:33:10;;;;;;;7.85;4.22;;;9.70;61.00;;;;;;2347001;53;20980;-67
2021/04/19 05:35:37;;;;;;;9.90;4.93;;;9.70;61.10;;;;;;2374645;53;20923;-68
2021/04/19 05:38:04;;;;;;;9.95;4.40;;;9.80;61.10;;;;;;2343691;54;21483;-66
2021/04/19 05:40:32;;;;;;;8.70;4.75;;;9.80;61.10;;;;;;2343485;54;20972;-66
2021/04/19 05:42:58;;;;;;;6.47;3.90;;;9.90;61.20;;;;;;2347325;53;20927;-67
2021/04/19 05:45:24;;;;;;;7.47;4.30;;;9.90;61.10;;;;;;2347712;53;20913;-66
2021/04/19 05:47:51;;;;;;;8.50;4.32;;;9.90;61.10;;;;;;2341057;53;20963;-67
2021/04/19 05:50:19;;;;;;;8.05;4.57;;;10.00;60.00;;;;;;2332588;53;20939;-69
2021/04/19 05:52:45;;;;;;;6.87;4.20;;;10.00;60.00;;;;;;2344394;54;20971;-66
2021/04/19 05:55:12;;;;;;;6.82;4.53;;;10.00;60.00;;;;;;2367364;53;20951;-66
2021/04/19 05:59:26;;;;;;;7.95;4.87;;;10.10;60.10;;;;;;2347872;54;21538;-66
2021/04/19 06:01:53;;;;;;;7.35;3.60;;;10.10;60.00;;;;;;2329252;54;20964;-65
2021/04/19 06:04:32;;;;;;;7.05;3.70;;;10.20;60.00;;;;;;2469289;53;21899;-65
2021/04/19 06:07:09;;;;;;;6.87;4.28;;;10.20;60.10;;;;;;2344750;53;21818;-65
2021/04/19 06:09:48;;;;;;;7.00;4.37;;;10.30;60.20;;;;;;2348965;53;20980;-66
2021/04/19 06:12:17;;;;;;;8.20;4.22;;;10.30;60.20;;;;;;2571681;52;21427;-68
2021/04/19 06:14:44;;;;;;;10.77;4.37;;;10.40;60.30;;;;;;2345046;53;20937;-68
2021/04/19 06:17:10;;;;;;;9.05;4.28;;;10.40;60.30;;;;;;2343673;53;20923;-67
2021/04/19 06:19:38;;;;;;;8.55;4.47;;;10.40;60.30;;;;;;2590986;53;20940;-65
2021/04/19 06:22:04;;;;;;;7.10;4.20;;;10.50;60.40;;;;;;2332612;53;20974;-68
2021/04/19 06:24:31;;;;;;;6.72;4.00;;;10.50;60.50;;;;;;2351832;53;20972;-66
2021/04/19 06:26:58;;;;;;;6.72;3.85;;;10.50;60.40;;;;;;2331757;53;20971;-64
2021/04/19 06:29:26;;;;;;;7.53;4.12;;;10.60;60.40;;;;;;2563613;53;21026;-68
2021/04/19 06:31:52;;;;;;;6.57;4.15;;;10.60;60.30;;;;;;2343670;53;21019;-69
2021/04/19 06:34:19;;;;;;;6.10;3.72;;;10.60;60.30;;;;;;2347756;54;20907;-69
2021/04/19 06:36:46;;;;;;;7.57;4.12;;;10.60;60.30;;;;;;2328692;53;20980;-67
2021/04/19 06:39:13;;;;;;;5.78;3.85;;;10.70;60.50;;;;;;2345723;53;20997;-67
2021/04/19 06:41:43;;;;;;;7.22;4.05;;;10.70;60.50;;;;;;2343717;53;21022;-65
2021/04/19 06:44:09;;;;;;;9.43;4.75;;;10.70;60.50;;;;;;2344164;54;20967;-68
2021/04/19 06:46:37;;;;;;;9.73;4.60;;;10.70;60.50;;;;;;2345761;53;20982;-67
2021/04/19 06:49:04;;;;;;;10.80;5.45;;;10.70;60.50;;;;;;2463653;53;21372;-66
2021/04/19 06:51:30;;;;;;;8.73;5.50;;;10.80;60.50;;;;;;2440571;53;21025;-66
2021/04/19 06:53:57;;;;;;;8.82;5.40;;;10.80;60.50;;;;;;2347149;53;20988;-68
2021/04/19 06:56:28;;;;;;;9.65;6.37;;;10.80;60.40;;;;;;2344084;53;21086;-65
2021/04/19 06:58:58;;;;;;;8.32;5.25;;;10.80;60.40;;;;;;2343767;54;20995;-68
2021/04/19 07:01:25;;;;;;;10.93;6.53;;;10.80;60.40;;;;;;2343216;54;20990;-67
2021/04/19 07:03:56;;;;;;;10.73;6.22;;;10.80;60.50;;;;;;2345011;53;20899;-66
2021/04/19 07:06:27;;;;;;;8.40;5.35;;;10.80;60.40;;;;;;2343413;53;20951;-65
2021/04/19 07:09:14;;;;;;;11.55;6.20;;;10.80;60.30;;;;;;2344639;53;21007;-66
2021/04/19 07:11:41;;;;;;;9.77;5.90;;;10.80;60.40;;;;;;2350774;53;21008;-67
2021/04/19 07:14:07;;;;;;;9.95;5.75;;;10.80;60.40;;;;;;2415192;53;21743;-66
2021/04/19 07:16:34;;;;;;;10.25;5.93;;;10.70;60.50;;;;;;2418642;53;21002;-66
2021/04/19 07:19:01;;;;;;;12.52;6.90;;;10.70;60.60;;;;;;2344124;54;20927;-67
2021/04/19 07:21:28;;;;;;;12.43;6.87;;;10.70;60.80;;;;;;2328632;54;20932;-65
2021/04/19 07:23:55;;;;;;;12.68;7.07;;;10.70;60.90;;;;;;2343149;53;20915;-65
2021/04/19 07:26:22;;;;;;;12.20;6.90;;;10.70;61.10;;;;;;2343732;54;20991;-65
2021/04/19 07:28:49;;;;;;;11.15;6.82;;;10.70;61.10;;;;;;2347893;53;21148;-66
2021/04/19 07:31:15;;;;;;;9.98;6.78;;;10.70;61.20;;;;;;2343372;53;20907;-68
2021/04/19 07:33:42;;;;;;;13.18;8.18;;;10.70;61.20;;;;;;2348278;54;21062;-68
2021/04/19 07:36:28;;;;;;;11.18;6.97;;;10.70;61.30;;;;;;2349846;53;20940;-67
2021/04/19 07:38:56;;;;;;;10.85;6.68;;;10.60;61.30;;;;;;2344449;54;21376;-66
2021/04/19 07:41:23;;;;;;;13.60;8.80;;;10.60;61.20;;;;;;2347054;53;21742;-66
2021/04/19 07:43:49;;;;;;;12.35;7.95;;;10.60;61.30;;;;;;2343922;54;20947;-66
2021/04/19 07:46:18;;;;;;;11.50;6.75;;;10.60;61.40;;;;;;2365457;53;20979;-67
2021/04/19 07:48:51;;;;;;;12.73;7.80;;;10.60;61.60;;;;;;2418753;53;20942;-66
2021/04/19 07:51:36;;;;;;;9.35;6.70;;;10.60;61.70;;;;;;2349819;53;20984;-67
2021/04/19 07:56:40;;;;;;;10.13;5.22;;;10.60;61.90;;;;;;2328962;53;21030;-67
2021/04/19 07:59:25;;;;;;;6.47;3.97;;;10.60;61.80;;;;;;2344328;53;20949;-67
2021/04/19 08:02:04;;;;;;;7.97;4.90;;;10.60;62.00;;;;;;2327609;53;20946;-68
2021/04/19 08:04:32;;;;;;;7.03;4.72;;;10.70;62.30;;;;;;2351687;53;21903;-69
2021/04/19 08:06:58;;;;;;;26.37;10.50;;;10.70;62.50;;;;;;2348102;53;20952;-69
2021/04/19 08:09:25;;;;;;;26.35;11.12;;;10.70;62.60;;;;;;2320563;53;20990;-67
2021/04/19 08:11:57;;;;;;;28.62;17.42;;;10.70;62.70;;;;;;2341869;54;20938;-68
2021/04/19 08:14:27;;;;;;;24.20;14.67;;;10.80;62.90;;;;;;2391143;53;20951;-67
2021/04/19 08:17:07;;;;;;;16.30;9.88;;;10.80;62.80;;;;;;2348265;53;20920;-69
2021/04/19 08:19:34;;;;;;;12.35;6.97;;;10.90;62.80;;;;;;2325760;54;20947;-68
2021/04/19 08:22:20;;;;;;;10.45;6.45;;;10.90;62.80;;;;;;2552346;53;20976;-65
2021/04/19 08:24:46;;;;;;;9.43;6.55;;;10.90;62.70;;;;;;2332851;53;21142;-65
2021/04/19 08:27:23;;;;;;;9.73;6.12;;;11.00;62.80;;;;;;2373813;53;21913;-68
2021/04/19 08:29:49;;;;;;;8.52;5.35;;;11.00;62.90;;;;;;2348486;53;21900;-68
2021/04/19 08:32:26;;;;;;;8.65;4.85;;;11.00;63.10;;;;;;2534259;53;20931;-66
2021/04/19 08:34:52;;;;;;;9.50;5.40;;;11.10;63.30;;;;;;2348742;53;20979;-65
2021/04/19 08:37:21;;;;;;;8.10;5.15;;;11.10;63.40;;;;;;2344330;53;21710;-65
2021/04/19 08:39:49;;;;;;;10.52;5.60;;;11.20;63.60;;;;;;2329724;53;21010;-68
2021/04/19 08:42:17;;;;;;;9.60;5.65;;;11.20;63.60;;;;;;2344331;54;20931;-65
2021/04/19 08:44:43;;;;;;;7.35;5.07;;;11.30;63.70;;;;;;2381673;53;21008;-67
2021/04/19 08:47:13;;;;;;;7.60;5.20;;;11.30;63.50;;;;;;2338193;53;21741;-67
2021/04/19 08:49:40;;;;;;;8.52;5.28;;;11.40;63.40;;;;;;2591148;53;21364;-65
2021/04/19 08:52:06;;;;;;;7.50;5.03;;;11.40;63.10;;;;;;2500392;53;21652;-67
2021/04/19 08:54:32;;;;;;;7.57;4.72;;;11.50;63.20;;;;;;2321346;54;21526;-67
2021/04/19 08:56:59;;;;;;;10.45;5.65;;;11.50;63.20;;;;;;2344135;54;20946;-68
2021/04/19 08:59:30;;;;;;;9.83;5.67;;;11.50;63.10;;;;;;2348153;53;20930;-66
2021/04/19 09:01:57;;;;;;;8.07;5.05;;;11.50;63.10;;;;;;2571479;52;21020;-66
2021/04/19 09:04:23;;;;;;;8.63;5.03;;;11.60;63.30;;;;;;2590086;53;20994;-68
2021/04/19 09:06:55;;;;;;;8.32;5.78;;;11.60;63.10;;;;;;2348153;53;21012;-69
2021/04/19 09:09:43;;;;;;;10.80;5.50;;;11.70;62.90;;;;;;2344505;53;20907;-67
2021/04/19 09:12:20;;;;;;;8.88;4.80;;;11.70;62.90;;;;;;2322453;54;21467;-69
2021/04/19 09:14:47;;;;;;;8.45;4.78;;;11.70;63.20;;;;;;2344291;54;20915;-68
2021/04/19 09:17:28;;;;;;;8.52;4.60;;;11.80;63.60;;;;;;2348403;53;21650;-65
2021/04/19 09:19:58;;;;;;;8.52;4.80;;;11.80;63.40;;;;;;2344464;53;20991;-68
2021/04/19 09:22:24;;;;;;;7.60;4.82;;;11.90;63.60;;;;;;2344298;54;21053;-69
2021/04/19 09:25:14;;;;;;;7.10;4.35;;;11.90;63.60;;;;;;2348255;53;20992;-67
2021/04/19 09:27:44;;;;;;;10.27;5.40;;;12.00;63.40;;;;;;2322403;54;20983;-70
2021/04/19 09:30:28;;;;;;;9.57;5.53;;;12.00;63.50;;;;;;2346443;54;21018;-68
2021/04/19 09:33:59;;;;;;;9.23;5.40;;;12.00;63.10;;;;;;2344767;53;21031;-70
2021/04/19 09:36:50;;;;;;;8.13;4.85;;;12.10;62.50;;;;;;2347891;53;20991;-68
2021/04/19 09:39:48;;;;;;;8.82;5.35;;;12.10;62.60;;;;;;2341497;53;20971;-66
2021/04/19 09:42:15;;;;;;;7.72;5.00;;;12.10;62.60;;;;;;2344101;53;21617;-66
2021/04/19 09:44:53;;;;;;;9.82;6.00;;;12.10;62.90;;;;;;2344049;54;21863;-66
2021/04/19 09:47:50;;;;;;;11.00;6.55;;;12.10;62.70;;;;;;2344523;54;20931;-67
2021/04/19 09:50:21;;;;;;;11.82;7.75;;;12.10;62.50;;;;;;2343981;54;21000;-66
2021/04/19 09:52:51;;;;;;;13.85;7.62;;;12.10;62.60;;;;;;2351868;53;22202;-69
2021/04/19 09:55:26;;;;;;;11.48;7.55;;;12.00;62.40;;;;;;2325712;54;20959;-67
2021/04/19 09:57:53;;;;;;;11.20;6.45;;;12.00;62.30;;;;;;2434501;53;20920;-70
2021/04/19 10:00:19;;;;;;;10.60;6.22;;;12.00;62.70;;;;;;2344423;53;20951;-67
2021/04/19 10:02:48;;;;;;;9.82;5.90;;;12.00;62.90;;;;;;2325174;54;20950;-66
2021/04/19 10:05:15;;;;;;;9.80;6.12;;;12.00;63.00;;;;;;2343746;54;21939;-68
2021/04/19 10:07:44;;;;;;;8.88;6.50;;;12.00;63.10;;;;;;2343855;54;21074;-67
2021/04/19 10:10:11;;;;;;;9.20;5.82;;;12.00;63.10;;;;;;2414354;53;20951;-69
2021/04/19 10:12:46;;;;;;;9.45;5.90;;;12.10;63.20;;;;;;2344111;53;20967;-67
2021/04/19 10:15:23;;;;;;;10.90;6.43;;;12.10;63.10;;;;;;2344650;53;21077;-69
2021/04/19 10:17:49;;;;;;;9.88;6.72;;;12.10;62.90;;;;;;2325120;54;21042;-69
2021/04/19 10:20:27;;;;;;;9.13;6.40;;;12.10;63.10;;;;;;2347376;53;21540;-69
2021/04/19 10:23:12;;;;;;;9.60;6.07;;;12.20;63.10;;;;;;2340525;53;20947;-70
2021/04/19 10:25:51;;;;;;;9.70;6.05;;;12.20;63.10;;;;;;2344270;54;21756;-69
2021/04/19 10:28:41;;;;;;;9.63;5.97;;;12.20;63.10;;;;;;2591239;53;21760;-66
2021/04/19 10:31:17;;;;;;;10.98;6.95;;;12.30;62.90;;;;;;2344532;53;20943;-70
2021/04/19 10:33:47;;;;;;;10.25;6.10;;;12.30;63.10;;;;;;2581256;53;20979;-67
2021/04/19 10:36:17;;;;;;;10.68;7.12;;;12.40;63.10;;;;;;2344494;53;21050;-71
2021/04/19 10:38:45;;;;;;;12.48;7.65;;;12.40;63.00;;;;;;2343784;53;21094;-66
2021/04/19 10:41:14;;;;;;;14.70;8.68;;;12.40;63.10;;;;;;2555405;53;20963;-70
2021/04/19 10:43:41;;;;;;;9.73;6.60;;;12.50;63.30;;;;;;2351559;53;20956;-69
2021/04/19 10:46:25;;;;;;;10.98;6.80;;;12.50;63.20;;;;;;2330996;53;20947;-70
2021/04/19 10:48:54;;;;;;;11.45;7.15;;;12.50;62.80;;;;;;2561602;53;20940;-71
2021/04/19 10:51:22;;;;;;;10.05;6.75;;;12.60;63.10;;;;;;2326487;54;20958;-71
2021/04/19 10:53:50;;;;;;;8.70;5.12;;;12.60;63.10;;;;;;2348599;53;20969;-67
2021/04/19 10:56:25;;;;;;;8.75;5.15;;;12.60;63.10;;;;;;2338475;53;20971;-67
2021/04/19 10:59:04;;;;;;;6.30;4.43;;;12.70;64.00;;;;;;2498586;53;1403464;-71
2021/04/19 11:01:34;;;;;;;7.25;4.87;;;12.70;62.90;;;;;;2409597;53;20988;-66
2021/04/19 11:04:02;;;;;;;9.35;5.70;;;12.70;63.20;;;;;;2343643;53;20931;-67
2021/04/19 11:06:28;;;;;;;8.10;5.62;;;12.80;63.40;;;;;;2344270;54;20915;-70
2021/04/19 11:09:05;;;;;;;7.75;5.15;;;12.80;63.40;;;;;;2519430;53;20963;-69
2021/04/19 11:11:51;;;;;;;8.27;5.25;;;12.90;63.20;;;;;;2339199;53;20932;-72
2021/04/19 11:14:22;;;;;;;8.32;5.12;;;12.90;62.90;;;;;;2345816;53;20963;-69
2021/04/19 11:16:59;;;;;;;9.27;5.82;;;13.00;63.30;;;;;;2343992;53;20955;-68
2021/04/19 11:20:27;;;;;;;10.90;6.72;;;13.00;63.30;;;;;;2348162;53;20950;-71
2021/04/19 11:22:53;;;;;;;9.35;6.20;;;13.10;61.70;;;;;;2406141;53;20920;-70
2021/04/19 11:25:24;;;;;;;8.48;5.37;;;13.10;62.80;;;;;;2348334;53;20999;-70
2021/04/19 11:27:52;;;;;;;8.95;5.68;;;13.10;62.70;;;;;;2333884;53;20986;-67
2021/04/19 11:30:27;;;;;;;10.38;5.62;;;13.10;62.70;;;;;;2350852;53;20900;-69
2021/04/19 11:33:06;;;;;;;8.10;5.25;;;13.20;62.60;;;;;;2345005;53;21043;-66
2021/04/19 11:35:35;;;;;;;8.75;5.60;;;13.20;62.50;;;;;;2343645;53;20939;-67
2021/04/19 11:38:02;;;;;;;8.88;5.50;;;13.20;62.70;;;;;;2348648;53;21457;-71
2021/04/19 11:41:07;;;;;;;8.00;5.10;;;13.20;62.50;;;;;;2546992;53;21822;-72
2021/04/19 11:43:34;;;;;;;8.73;5.78;;;13.30;62.60;;;;;;2344916;53;21039;-68
2021/04/19 11:46:07;;;;;;;13.00;8.18;;;13.30;62.70;;;;;;2347958;53;20961;-72
2021/04/19 11:48:35;;;;;;;13.25;8.05;;;13.30;62.60;;;;;;2343622;53;20939;-66
2021/04/19 11:51:02;;;;;;;10.82;6.18;;;13.40;62.80;;;;;;2343320;54;20939;-66
2021/04/19 11:53:35;;;;;;;10.27;5.95;;;13.40;62.80;;;;;;2338065;55;21026;-69
2021/04/19 11:56:04;;;;;;;8.90;5.70;;;13.50;62.30;;;;;;2562956;53;20996;-69
2021/04/19 11:58:41;;;;;;;8.95;5.25;;;13.50;62.40;;;;;;2343929;54;21062;-67
2021/04/19 12:01:07;;;;;;;7.87;5.22;;;13.50;61.90;;;;;;2425331;53;20926;-68
2021/04/19 12:03:35;;;;;;;8.07;5.60;;;13.60;62.40;;;;;;2344585;54;20907;-69
2021/04/19 12:06:03;;;;;;;10.45;6.00;;;13.60;62.10;;;;;;2343255;53;20939;-70
2021/04/19 12:08:29;;;;;;;9.95;6.47;;;13.60;61.40;;;;;;2367833;53;21756;-68
2021/04/19 12:10:55;;;;;;;10.10;6.60;;;13.60;60.50;;;;;;2344504;53;20935;-67
2021/04/19 12:13:21;;;;;;;9.32;6.30;;;13.60;60.50;;;;;;2347931;53;20948;-67
2021/04/19 12:15:49;;;;;;;9.70;5.87;;;13.60;60.60;;;;;;2579946;53;20999;-70
2021/04/19 12:18:15;;;;;;;11.60;6.97;;;13.60;60.50;;;;;;2398171;53;20986;-69
2021/04/19 12:20:43;;;;;;;12.23;7.37;;;13.50;60.30;;;;;;2347531;53;21826;-69
2021/04/19 12:23:09;;;;;;;10.50;6.07;;;13.50;60.10;;;;;;2344719;53;20974;-69
2021/04/19 12:25:35;;;;;;;8.63;5.62;;;13.50;60.30;;;;;;2325243;54;20943;-68
2021/04/19 12:28:02;;;;;;;9.70;6.10;;;13.60;60.60;;;;;;2347974;53;20896;-68
2021/04/19 12:30:30;;;;;;;9.65;5.95;;;13.60;60.20;;;;;;2590912;53;20939;-67
2021/04/19 12:32:57;;;;;;;9.18;5.78;;;13.60;60.30;;;;;;2344830;54;20927;-70
2021/04/19 12:35:29;;;;;;;10.18;5.75;;;13.60;60.70;;;;;;2344305;54;21018;-68
2021/04/19 12:37:56;;;;;;;9.23;5.18;;;13.70;61.70;;;;;;2344927;54;20979;-69
2021/04/19 12:40:27;;;;;;;6.60;4.50;;;13.70;61.50;;;;;;2348628;53;20927;-67
2021/04/19 12:42:53;;;;;;;8.07;4.75;;;13.80;61.90;;;;;;2344613;53;21066;-70
2021/04/19 12:45:24;;;;;;;9.10;5.62;;;13.90;62.00;;;;;;2344456;53;20955;-68
2021/04/19 12:47:53;;;;;;;10.35;6.75;;;14.00;61.70;;;;;;2574176;53;21466;-70
2021/04/19 12:50:22;;;;;;;9.60;5.85;;;14.00;60.50;;;;;;2344070;53;20927;-70
2021/04/19 12:52:48;;;;;;;8.85;5.00;;;14.10;60.50;;;;;;2348154;53;20972;-66
2021/04/19 12:55:24;;;;;;;8.73;5.07;;;14.20;60.90;;;;;;2343286;53;21495;-67
2021/04/19 12:57:51;;;;;;;8.20;5.45;;;14.20;60.90;;;;;;2449808;53;21554;-69
2021/04/19 13:00:17;;;;;;;8.85;5.95;;;14.20;60.60;;;;;;2340535;54;20923;-68
2021/04/19 13:02:43;;;;;;;8.70;5.18;;;14.30;60.60;;;;;;2517361;53;20993;-66
2021/04/19 13:05:11;;;;;;;8.95;5.20;;;14.40;60.90;;;;;;2442002;53;20955;-68
2021/04/19 13:07:37;;;;;;;8.70;5.37;;;14.40;61.00;;;;;;2340952;53;21046;-67
2021/04/19 13:10:04;;;;;;;8.77;5.28;;;14.50;61.20;;;;;;2352012;53;20936;-68
2021/04/19 13:12:31;;;;;;;8.73;5.32;;;14.60;61.40;;;;;;2400253;53;21447;-68